x

Buzzards Bay, Ma (buzm3) Weather Station

5:00pm - Mon 23rd Oct 2017 All times are EDT. -4 hours from GMT.

  • Wind
    13mph, 14mph gusts
  • Air Temp 64°f
  • Sea Pressure 1023.7mb
  • Buzzards Bay, Ma
  • Buzzards Bay, Ma

More Historic Weather Station data

Upgrade to MSW Pro to gain access to the past 30 days of data for over 8000 Wavebouys and Weather Stations around the globe.

Join

Comparision Forecast

View Surf forecast
   
Mon 10/23 5:00pm 13 14 mph 1023.7mb 64f
4:00pm 13 13 mph 1024.2mb 64f
3:00pm 13 15 mph 1024.6mb 64f
2:00pm 13 14 mph 1025.2mb 64f
1:00pm 13 14 mph 1026mb 63f
12:00pm 14 15 mph 1027mb 63f
11:00am 11 11 mph 1027.7mb 62f
10:00am 11 13 mph 1028.3mb 62f
9:00am 8 8 mph 1028.9mb 62f
8:00am 7 7 mph 1028.9mb 62f
7:00am 5 6 mph 1028.6mb 61f
6:00am 7 7 mph 1028.3mb 61f
5:00am 5 5 mph 1028.6mb 62f
4:00am 6 7 mph 1029mb 62f
3:00am 7 7 mph 1029.3mb 62f
2:00am 6 7 mph 1029.4mb 62f
1:00am 7 7 mph 1029.9mb 62f
12:00am 8 8 mph 1030mb 62f
Sun 10/22 11:00pm 8 8 mph 1030.1mb 62f
10:00pm 9 10 mph 1030.3mb 62f
9:00pm 11 13 mph 1029.8mb 62f
8:00pm 9 10 mph 1029.7mb 63f
7:00pm 9 9 mph 1029.4mb 64f
6:00pm 9 9 mph 1029.2mb 63f
5:00pm 10 11 mph 1029.1mb 64f
4:00pm 9 10 mph 1029mb 64f
3:00pm 7 8 mph 1029.2mb 64f
2:00pm 9 9 mph 1029.3mb 64f
1:00pm 9 10 mph 1029.5mb 63f
12:00pm 7 8 mph 1029.6mb 63f
11:00am 7 8 mph 1029.9mb 62f
10:00am 9 10 mph 1030.3mb 62f
9:00am 9 10 mph 1030.1mb 62f
8:00am 9 9 mph 1029.5mb 62f
7:00am 10 10 mph 1028.8mb 62f
6:00am 10 11 mph 1028.5mb 62f
5:00am 10 10 mph 1028.1mb 62f
4:00am 11 13 mph 1027.8mb 62f
3:00am 11 13 mph 1027.7mb 62f
2:00am 11 13 mph 1027.9mb 62f
1:00am 9 10 mph 1027.9mb 62f
12:00am 9 10 mph 1028mb 63f
Sat 10/21 11:00pm 13 14 mph 1027.9mb 63f
10:00pm 16 18 mph 1027.8mb 63f
9:00pm 17 20 mph 1027.4mb 63f
8:00pm 18 22 mph 1027.1mb 63f
7:00pm 21 22 mph 1026.9mb 63f
6:00pm 21 22 mph 1026.4mb 63f
5:00pm 21 22 mph 1026mb 63f
4:00pm 20 22 mph 1025.9mb 63f
3:00pm 18 20 mph 1025.8mb 63f
2:00pm 14 15 mph 1026.1mb 63f
1:00pm 11 13 mph 1026.6mb 63f
12:00pm 9 10 mph 1027.1mb 62f
11:00am 8 8 mph 1027.2mb 62f
10:00am 6 7 mph 1027mb 61f
9:00am 2 3 mph 1026.2mb 61f
8:00am 1 2 mph 1026mb 62f
7:00am 3 3 mph 1025.3mb 58f
6:00am 6 7 mph 1024.7mb 59f
5:00am 9 10 mph 1024mb 59f
4:00am 11 14 mph 1023mb 60f
3:00am 13 14 mph 1022.4mb 61f
2:00am 13 14 mph 1022.4mb 61f
1:00am 14 16 mph 1022mb 62f
12:00am 17 18 mph 1021.5mb 63f
Fri 10/20 11:00pm 14 15 mph 1021mb 63f
10:00pm 16 17 mph 1020.4mb 63f
9:00pm 14 15 mph 1019.7mb 64f
8:00pm 15 16 mph 1019mb 65f
7:00pm 16 17 mph 1018.4mb 67f
6:00pm 14 15 mph 1017.8mb 67f
5:00pm 13 13 mph 1017.2mb 68f
4:00pm 14 15 mph 1016.9mb 67f
3:00pm 8 10 mph 1016.5mb 67f
2:00pm 9 10 mph 1016.9mb 65f
1:00pm 16 17 mph 1017.3mb 64f
12:00pm 17 17 mph 1018mb 64f
10:00am 22 23 mph 1018.6mb 61f
9:00am 26 28 mph 1018.1mb 61f
8:00am 26 28 mph 1017.6mb 61f
7:00am 24 25 mph 1017mb 62f
6:00am 28 31 mph 1016.7mb 62f
5:00am 17 18 mph 1016.5mb 62f
4:00am 24 26 mph 1016.4mb 63f
3:00am 25 28 mph 1016.1mb 63f
2:00am 25 26 mph 1016.6mb 64f
1:00am 26 30 mph 1016.9mb 63f
12:00am 26 30 mph 1017.4mb 62f
Thu 10/19 11:00pm 31 33 mph 1017.5mb 62f